createdAt,value
2023-04-09T00:26:24.611Z,12.6
2023-04-09T00:56:26.766Z,12.8
2023-04-09T01:26:31.283Z,11.9
2023-04-09T01:56:31.239Z,11.8
2023-04-09T02:26:28.387Z,12.1
2023-04-09T02:56:29.132Z,12.4
2023-04-09T03:26:36.413Z,12.5
2023-04-09T03:56:34.022Z,13.5
2023-04-09T04:26:32.299Z,12.8
2023-04-09T04:56:34.582Z,12.3
2023-04-09T05:26:34.131Z,12.1
2023-04-09T05:56:35.642Z,11.9
2023-04-09T06:26:35.824Z,11.6
2023-04-09T06:56:36.226Z,11.7
2023-04-09T07:26:37.342Z,12
2023-04-09T07:56:38.009Z,11.8
2023-04-09T08:26:39.723Z,12.2
2023-04-09T08:56:42.984Z,11.7
2023-04-09T09:26:45.771Z,12.1
2023-04-09T09:56:43.657Z,12.3
2023-04-09T10:26:46.209Z,13.3
2023-04-09T10:56:57.547Z,14.4
2023-04-09T11:26:48.618Z,15.3
2023-04-09T11:56:49.523Z,15.8
2023-04-09T12:26:53.331Z,15.9
2023-04-09T12:56:54.269Z,15.1
2023-04-09T13:27:00.173Z,14.8
2023-04-09T13:57:00.775Z,14.6
2023-04-09T14:27:04.165Z,13.6
2023-04-09T14:57:08.868Z,13.8
2023-04-09T15:27:10.774Z,11.8
2023-04-09T15:57:14.502Z,11.3
2023-04-09T16:27:17.889Z,11.1
2023-04-09T16:57:21.881Z,10
2023-04-09T17:27:23.590Z,9.7
2023-04-09T17:57:26.088Z,9.9
2023-04-09T18:27:28.071Z,9.8
2023-04-09T18:57:32.251Z,10.5
2023-04-09T19:27:32.267Z,10
2023-04-09T19:57:33.940Z,9.9
2023-04-09T20:27:38.145Z,10.5
2023-04-09T20:57:37.368Z,10.2
2023-04-09T21:27:38.566Z,10.2
2023-04-09T21:57:40.172Z,10.6
2023-04-09T22:27:43.664Z,10.9
2023-04-09T22:57:43.119Z,11.4
2023-04-09T23:27:43.197Z,10.9
2023-04-09T23:57:45.287Z,9.8
